sensor_id;sensor_type;location;lat;lon;timestamp;temperature;humidity
30288;DHT22;17103;48.316;11.558;2023-06-26T00:02:18;26.10;34.90
30288;DHT22;17103;48.316;11.558;2023-06-26T00:04:44;26.10;34.90
30288;DHT22;17103;48.316;11.558;2023-06-26T00:07:10;26.10;35.00
30288;DHT22;17103;48.316;11.558;2023-06-26T00:09:36;26.10;35.60
30288;DHT22;17103;48.316;11.558;2023-06-26T00:12:02;26.00;35.00
30288;DHT22;17103;48.316;11.558;2023-06-26T00:14:27;26.00;35.00
30288;DHT22;17103;48.316;11.558;2023-06-26T00:16:53;25.90;35.00
30288;DHT22;17103;48.316;11.558;2023-06-26T00:19:18;26.00;35.10
30288;DHT22;17103;48.316;11.558;2023-06-26T00:21:44;25.90;35.00
30288;DHT22;17103;48.316;11.558;2023-06-26T00:24:12;25.90;35.10
30288;DHT22;17103;48.316;11.558;2023-06-26T00:26:38;25.80;35.10
30288;DHT22;17103;48.316;11.558;2023-06-26T00:29:03;25.80;35.20
30288;DHT22;17103;48.316;11.558;2023-06-26T00:31:30;25.70;35.10
30288;DHT22;17103;48.316;11.558;2023-06-26T00:33:55;25.70;35.20
30288;DHT22;17103;48.316;11.558;2023-06-26T00:36:21;25.70;35.50
30288;DHT22;17103;48.316;11.558;2023-06-26T00:38:49;25.50;35.50
30288;DHT22;17103;48.316;11.558;2023-06-26T00:41:15;25.60;35.70
30288;DHT22;17103;48.316;11.558;2023-06-26T00:43:41;25.50;35.80
30288;DHT22;17103;48.316;11.558;2023-06-26T00:46:12;25.50;35.80
30288;DHT22;17103;48.316;11.558;2023-06-26T00:48:38;25.50;36.10
30288;DHT22;17103;48.316;11.558;2023-06-26T00:51:05;25.40;36.00
30288;DHT22;17103;48.316;11.558;2023-06-26T00:53:31;25.40;36.10
30288;DHT22;17103;48.316;11.558;2023-06-26T00:55:57;25.40;36.30
30288;DHT22;17103;48.316;11.558;2023-06-26T00:58:24;25.20;36.30
30288;DHT22;17103;48.316;11.558;2023-06-26T01:00:51;25.30;36.40
30288;DHT22;17103;48.316;11.558;2023-06-26T01:03:17;25.30;36.50
30288;DHT22;17103;48.316;11.558;2023-06-26T01:05:43;25.20;36.50
30288;DHT22;17103;48.316;11.558;2023-06-26T01:08:12;25.30;36.70
30288;DHT22;17103;48.316;11.558;2023-06-26T01:10:38;25.20;37.30
30288;DHT22;17103;48.316;11.558;2023-06-26T01:13:04;25.20;36.80
30288;DHT22;17103;48.316;11.558;2023-06-26T01:15:30;25.10;36.90
30288;DHT22;17103;48.316;11.558;2023-06-26T01:17:57;25.10;37.00
30288;DHT22;17103;48.316;11.558;2023-06-26T01:20:27;25.00;37.10
30288;DHT22;17103;48.316;11.558;2023-06-26T01:23:14;25.00;37.20
30288;DHT22;17103;48.316;11.558;2023-06-26T01:28:39;25.00;37.70
30288;DHT22;17103;48.316;11.558;2023-06-26T01:31:06;25.00;37.60
30288;DHT22;17103;48.316;11.558;2023-06-26T01:33:32;24.90;37.50
30288;DHT22;17103;48.316;11.558;2023-06-26T01:35:58;24.80;37.70
30288;DHT22;17103;48.316;11.558;2023-06-26T01:38:24;24.80;37.70
30288;DHT22;17103;48.316;11.558;2023-06-26T01:40:50;24.80;37.80
30288;DHT22;17103;48.316;11.558;2023-06-26T01:43:41;24.80;37.90
30288;DHT22;17103;48.316;11.558;2023-06-26T01:46:55;24.70;38.40
30288;DHT22;17103;48.316;11.558;2023-06-26T01:51:53;24.70;38.00
30288;DHT22;17103;48.316;11.558;2023-06-26T01:54:23;24.60;38.10
30288;DHT22;17103;48.316;11.558;2023-06-26T01:56:50;24.60;37.90
30288;DHT22;17103;48.316;11.558;2023-06-26T01:59:18;24.60;37.90
30288;DHT22;17103;48.316;11.558;2023-06-26T02:01:44;24.50;37.90
30288;DHT22;17103;48.316;11.558;2023-06-26T02:04:10;24.50;38.00
30288;DHT22;17103;48.316;11.558;2023-06-26T02:06:36;24.50;38.10
30288;DHT22;17103;48.316;11.558;2023-06-26T02:09:01;24.50;38.20
30288;DHT22;17103;48.316;11.558;2023-06-26T02:11:27;24.50;38.20
30288;DHT22;17103;48.316;11.558;2023-06-26T02:13:53;24.40;38.20
30288;DHT22;17103;48.316;11.558;2023-06-26T02:16:18;24.40;38.30
30288;DHT22;17103;48.316;11.558;2023-06-26T02:18:44;24.40;38.30
30288;DHT22;17103;48.316;11.558;2023-06-26T02:21:10;24.30;38.30
30288;DHT22;17103;48.316;11.558;2023-06-26T02:23:36;24.30;38.40
30288;DHT22;17103;48.316;11.558;2023-06-26T02:26:02;24.20;38.30
30288;DHT22;17103;48.316;11.558;2023-06-26T02:28:28;24.30;38.40
30288;DHT22;17103;48.316;11.558;2023-06-26T02:30:53;24.30;38.40
30288;DHT22;17103;48.316;11.558;2023-06-26T02:33:19;24.30;38.40
30288;DHT22;17103;48.316;11.558;2023-06-26T02:35:44;24.30;38.40
30288;DHT22;17103;48.316;11.558;2023-06-26T02:38:10;24.30;38.40
30288;DHT22;17103;48.316;11.558;2023-06-26T02:40:35;24.30;38.40
30288;DHT22;17103;48.316;11.558;2023-06-26T02:43:01;24.40;38.50
30288;DHT22;17103;48.316;11.558;2023-06-26T02:45:26;24.30;38.40
30288;DHT22;17103;48.316;11.558;2023-06-26T02:47:52;24.20;38.30
30288;DHT22;17103;48.316;11.558;2023-06-26T02:50:17;24.20;38.30
30288;DHT22;17103;48.316;11.558;2023-06-26T02:52:43;24.10;38.10
30288;DHT22;17103;48.316;11.558;2023-06-26T02:55:09;24.20;38.20
30288;DHT22;17103;48.316;11.558;2023-06-26T02:57:34;24.20;38.20
30288;DHT22;17103;48.316;11.558;2023-06-26T03:00:00;24.20;38.20
30288;DHT22;17103;48.316;11.558;2023-06-26T03:02:25;24.20;38.20
30288;DHT22;17103;48.316;11.558;2023-06-26T03:04:51;24.10;38.10
30288;DHT22;17103;48.316;11.558;2023-06-26T03:07:18;24.10;38.00
30288;DHT22;17103;48.316;11.558;2023-06-26T03:09:43;24.00;38.00
30288;DHT22;17103;48.316;11.558;2023-06-26T03:12:09;24.10;38.10
30288;DHT22;17103;48.316;11.558;2023-06-26T03:14:35;24.10;38.10
30288;DHT22;17103;48.316;11.558;2023-06-26T03:17:00;24.10;38.10
30288;DHT22;17103;48.316;11.558;2023-06-26T03:19:28;24.10;38.10
30288;DHT22;17103;48.316;11.558;2023-06-26T03:21:54;24.10;38.10
30288;DHT22;17103;48.316;11.558;2023-06-26T03:24:20;24.10;37.80
30288;DHT22;17103;48.316;11.558;2023-06-26T03:26:46;24.10;37.70
30288;DHT22;17103;48.316;11.558;2023-06-26T03:29:11;24.00;37.50
30288;DHT22;17103;48.316;11.558;2023-06-26T03:31:37;24.00;37.70
30288;DHT22;17103;48.316;11.558;2023-06-26T03:34:02;24.00;37.80
30288;DHT22;17103;48.316;11.558;2023-06-26T03:36:28;23.90;37.70
30288;DHT22;17103;48.316;11.558;2023-06-26T03:38:54;23.90;37.80
30288;DHT22;17103;48.316;11.558;2023-06-26T03:41:22;23.90;37.80
30288;DHT22;17103;48.316;11.558;2023-06-26T03:43:48;23.90;37.50
30288;DHT22;17103;48.316;11.558;2023-06-26T03:46:14;24.00;37.70
30288;DHT22;17103;48.316;11.558;2023-06-26T03:48:40;23.90;37.70
30288;DHT22;17103;48.316;11.558;2023-06-26T03:51:06;23.90;37.70
30288;DHT22;17103;48.316;11.558;2023-06-26T03:53:32;23.90;37.40
30288;DHT22;17103;48.316;11.558;2023-06-26T03:55:58;23.90;37.60
30288;DHT22;17103;48.316;11.558;2023-06-26T03:58:24;23.80;37.60
30288;DHT22;17103;48.316;11.558;2023-06-26T04:00:51;23.80;37.60
30288;DHT22;17103;48.316;11.558;2023-06-26T04:03:16;23.80;37.60
30288;DHT22;17103;48.316;11.558;2023-06-26T04:05:42;23.70;37.50
30288;DHT22;17103;48.316;11.558;2023-06-26T04:08:08;23.90;37.70
30288;DHT22;17103;48.316;11.558;2023-06-26T04:10:34;23.80;37.50
30288;DHT22;17103;48.316;11.558;2023-06-26T04:13:01;23.80;37.40
30288;DHT22;17103;48.316;11.558;2023-06-26T04:15:27;23.90;37.20
30288;DHT22;17103;48.316;11.558;2023-06-26T04:17:52;23.80;37.30
30288;DHT22;17103;48.316;11.558;2023-06-26T04:20:18;23.80;37.30
30288;DHT22;17103;48.316;11.558;2023-06-26T04:22:44;23.80;37.40
30288;DHT22;17103;48.316;11.558;2023-06-26T04:25:09;23.70;37.40
30288;DHT22;17103;48.316;11.558;2023-06-26T04:27:37;23.70;37.40
30288;DHT22;17103;48.316;11.558;2023-06-26T04:30:03;23.70;37.30
30288;DHT22;17103;48.316;11.558;2023-06-26T04:32:29;23.70;37.30
30288;DHT22;17103;48.316;11.558;2023-06-26T04:34:54;23.70;37.20
30288;DHT22;17103;48.316;11.558;2023-06-26T04:37:20;23.90;37.50
30288;DHT22;17103;48.316;11.558;2023-06-26T04:39:45;23.70;37.40
30288;DHT22;17103;48.316;11.558;2023-06-26T04:42:11;23.70;37.50
30288;DHT22;17103;48.316;11.558;2023-06-26T04:44:37;23.70;37.20
30288;DHT22;17103;48.316;11.558;2023-06-26T04:47:04;23.70;37.20
30288;DHT22;17103;48.316;11.558;2023-06-26T04:49:29;23.70;36.80
30288;DHT22;17103;48.316;11.558;2023-06-26T04:51:56;23.70;37.00
30288;DHT22;17103;48.316;11.558;2023-06-26T04:54:21;23.60;37.20
30288;DHT22;17103;48.316;11.558;2023-06-26T04:56:47;23.60;37.30
30288;DHT22;17103;48.316;11.558;2023-06-26T04:59:13;23.60;37.30
30288;DHT22;17103;48.316;11.558;2023-06-26T05:01:40;23.50;37.30
30288;DHT22;17103;48.316;11.558;2023-06-26T05:04:06;23.50;37.50
30288;DHT22;17103;48.316;11.558;2023-06-26T05:06:31;23.50;37.60
30288;DHT22;17103;48.316;11.558;2023-06-26T05:08:57;23.60;37.60
30288;DHT22;17103;48.316;11.558;2023-06-26T05:11:25;23.50;37.60
30288;DHT22;17103;48.316;11.558;2023-06-26T05:13:50;23.50;37.80
30288;DHT22;17103;48.316;11.558;2023-06-26T05:16:16;23.50;37.80
30288;DHT22;17103;48.316;11.558;2023-06-26T05:18:41;23.50;38.00
30288;DHT22;17103;48.316;11.558;2023-06-26T05:21:07;23.40;37.90
30288;DHT22;17103;48.316;11.558;2023-06-26T05:23:34;23.50;38.00
30288;DHT22;17103;48.316;11.558;2023-06-26T05:26:01;23.50;38.10
30288;DHT22;17103;48.316;11.558;2023-06-26T05:28:27;23.50;37.90
30288;DHT22;17103;48.316;11.558;2023-06-26T05:30:54;23.60;38.30
30288;DHT22;17103;48.316;11.558;2023-06-26T05:33:21;23.60;38.40
30288;DHT22;17103;48.316;11.558;2023-06-26T05:35:48;23.60;38.40
30288;DHT22;17103;48.316;11.558;2023-06-26T05:38:14;23.60;38.50
30288;DHT22;17103;48.316;11.558;2023-06-26T05:40:40;23.70;38.40
30288;DHT22;17103;48.316;11.558;2023-06-26T05:43:07;23.70;38.50
30288;DHT22;17103;48.316;11.558;2023-06-26T05:45:33;23.70;38.80
30288;DHT22;17103;48.316;11.558;2023-06-26T05:47:58;23.90;38.90
30288;DHT22;17103;48.316;11.558;2023-06-26T05:50:24;23.80;39.00
30288;DHT22;17103;48.316;11.558;2023-06-26T05:52:51;23.80;38.50
30288;DHT22;17103;48.316;11.558;2023-06-26T05:55:17;23.90;39.10
30288;DHT22;17103;48.316;11.558;2023-06-26T05:57:43;23.90;39.10
30288;DHT22;17103;48.316;11.558;2023-06-26T06:00:10;23.80;39.20
30288;DHT22;17103;48.316;11.558;2023-06-26T06:02:39;23.90;39.00
30288;DHT22;17103;48.316;11.558;2023-06-26T06:05:05;23.80;39.50
30288;DHT22;17103;48.316;11.558;2023-06-26T06:07:35;23.80;39.50
30288;DHT22;17103;48.316;11.558;2023-06-26T06:10:02;23.80;40.10
30288;DHT22;17103;48.316;11.558;2023-06-26T06:12:28;23.80;39.40
30288;DHT22;17103;48.316;11.558;2023-06-26T06:14:56;23.90;39.60
30288;DHT22;17103;48.316;11.558;2023-06-26T06:17:21;23.90;39.50
30288;DHT22;17103;48.316;11.558;2023-06-26T06:19:47;23.90;40.00
30288;DHT22;17103;48.316;11.558;2023-06-26T06:22:13;23.90;40.20
30288;DHT22;17103;48.316;11.558;2023-06-26T06:24:39;23.90;40.20
30288;DHT22;17103;48.316;11.558;2023-06-26T06:27:04;23.90;40.20
30288;DHT22;17103;48.316;11.558;2023-06-26T06:29:30;23.90;41.30
30288;DHT22;17103;48.316;11.558;2023-06-26T06:31:56;24.00;40.70
30288;DHT22;17103;48.316;11.558;2023-06-26T06:34:21;24.00;40.80
30288;DHT22;17103;48.316;11.558;2023-06-26T06:36:47;24.00;41.00
30288;DHT22;17103;48.316;11.558;2023-06-26T06:39:12;23.90;40.70
30288;DHT22;17103;48.316;11.558;2023-06-26T06:41:38;24.10;40.60
30288;DHT22;17103;48.316;11.558;2023-06-26T06:44:04;24.20;40.50
30288;DHT22;17103;48.316;11.558;2023-06-26T06:46:30;24.20;40.50
30288;DHT22;17103;48.316;11.558;2023-06-26T06:48:55;24.20;41.20
30288;DHT22;17103;48.316;11.558;2023-06-26T06:51:22;24.30;40.80
30288;DHT22;17103;48.316;11.558;2023-06-26T06:53:47;24.30;41.10
30288;DHT22;17103;48.316;11.558;2023-06-26T06:56:13;24.40;40.60
30288;DHT22;17103;48.316;11.558;2023-06-26T06:58:39;24.50;41.00
30288;DHT22;17103;48.316;11.558;2023-06-26T07:01:08;24.50;41.30
30288;DHT22;17103;48.316;11.558;2023-06-26T07:03:34;24.50;41.30
30288;DHT22;17103;48.316;11.558;2023-06-26T07:06:00;24.60;40.70
30288;DHT22;17103;48.316;11.558;2023-06-26T07:08:26;24.80;40.70
30288;DHT22;17103;48.316;11.558;2023-06-26T07:10:52;24.80;41.10
30288;DHT22;17103;48.316;11.558;2023-06-26T07:13:18;24.80;41.20
30288;DHT22;17103;48.316;11.558;2023-06-26T07:15:45;24.90;41.10
30288;DHT22;17103;48.316;11.558;2023-06-26T07:18:10;24.90;41.30
30288;DHT22;17103;48.316;11.558;2023-06-26T07:20:36;25.00;41.00
30288;DHT22;17103;48.316;11.558;2023-06-26T07:23:02;25.10;40.90
30288;DHT22;17103;48.316;11.558;2023-06-26T07:25:27;25.20;40.80
30288;DHT22;17103;48.316;11.558;2023-06-26T07:27:53;25.20;40.80
30288;DHT22;17103;48.316;11.558;2023-06-26T07:30:18;25.30;40.70
30288;DHT22;17103;48.316;11.558;2023-06-26T07:32:45;25.40;40.80
30288;DHT22;17103;48.316;11.558;2023-06-26T07:35:10;25.50;40.80
30288;DHT22;17103;48.316;11.558;2023-06-26T07:37:36;25.50;40.70
30288;DHT22;17103;48.316;11.558;2023-06-26T07:40:02;25.60;40.90
30288;DHT22;17103;48.316;11.558;2023-06-26T07:42:28;25.60;40.50
30288;DHT22;17103;48.316;11.558;2023-06-26T07:44:54;25.70;40.90
30288;DHT22;17103;48.316;11.558;2023-06-26T07:47:25;25.80;40.80
30288;DHT22;17103;48.316;11.558;2023-06-26T07:49:51;25.80;40.80
30288;DHT22;17103;48.316;11.558;2023-06-26T07:52:18;25.90;40.60
30288;DHT22;17103;48.316;11.558;2023-06-26T07:54:44;26.10;40.30
30288;DHT22;17103;48.316;11.558;2023-06-26T07:57:10;26.10;40.50
30288;DHT22;17103;48.316;11.558;2023-06-26T07:59:37;26.20;40.10
30288;DHT22;17103;48.316;11.558;2023-06-26T08:02:02;26.30;40.00
30288;DHT22;17103;48.316;11.558;2023-06-26T08:04:29;26.40;39.80
30288;DHT22;17103;48.316;11.558;2023-06-26T08:06:59;26.50;40.00
30288;DHT22;17103;48.316;11.558;2023-06-26T08:09:28;26.50;39.80
30288;DHT22;17103;48.316;11.558;2023-06-26T08:11:55;26.80;40.00
30288;DHT22;17103;48.316;11.558;2023-06-26T08:14:21;26.70;39.80
30288;DHT22;17103;48.316;11.558;2023-06-26T08:16:47;26.70;39.60
30288;DHT22;17103;48.316;11.558;2023-06-26T08:19:14;26.90;39.30
30288;DHT22;17103;48.316;11.558;2023-06-26T08:21:43;27.00;39.30
30288;DHT22;17103;48.316;11.558;2023-06-26T08:24:10;27.00;39.20
30288;DHT22;17103;48.316;11.558;2023-06-26T08:26:36;27.20;38.90
30288;DHT22;17103;48.316;11.558;2023-06-26T08:29:03;27.20;38.30
30288;DHT22;17103;48.316;11.558;2023-06-26T08:31:33;27.30;38.30
30288;DHT22;17103;48.316;11.558;2023-06-26T08:34:00;27.40;38.80
30288;DHT22;17103;48.316;11.558;2023-06-26T08:36:26;27.40;38.50
30288;DHT22;17103;48.316;11.558;2023-06-26T08:38:51;27.50;38.40
30288;DHT22;17103;48.316;11.558;2023-06-26T08:41:17;27.50;38.10
30288;DHT22;17103;48.316;11.558;2023-06-26T08:43:43;27.70;38.30
30288;DHT22;17103;48.316;11.558;2023-06-26T08:46:08;27.80;38.30
30288;DHT22;17103;48.316;11.558;2023-06-26T08:48:35;27.90;38.30
30288;DHT22;17103;48.316;11.558;2023-06-26T08:51:14;28.00;38.00
30288;DHT22;17103;48.316;11.558;2023-06-26T08:56:24;28.10;37.60
30288;DHT22;17103;48.316;11.558;2023-06-26T08:58:50;28.20;37.30
30288;DHT22;17103;48.316;11.558;2023-06-26T09:01:16;28.30;37.30
30288;DHT22;17103;48.316;11.558;2023-06-26T09:03:43;28.40;37.60
30288;DHT22;17103;48.316;11.558;2023-06-26T09:06:08;28.50;37.00
30288;DHT22;17103;48.316;11.558;2023-06-26T09:08:34;28.60;37.30
30288;DHT22;17103;48.316;11.558;2023-06-26T09:11:00;28.60;36.30
30288;DHT22;17103;48.316;11.558;2023-06-26T09:13:25;28.70;36.30
30288;DHT22;17103;48.316;11.558;2023-06-26T09:15:53;28.70;35.70
30288;DHT22;17103;48.316;11.558;2023-06-26T09:18:21;28.80;36.10
30288;DHT22;17103;48.316;11.558;2023-06-26T09:20:47;28.90;35.70
30288;DHT22;17103;48.316;11.558;2023-06-26T09:23:13;28.90;35.60
30288;DHT22;17103;48.316;11.558;2023-06-26T09:25:40;29.00;35.60
30288;DHT22;17103;48.316;11.558;2023-06-26T09:28:06;29.00;35.20
30288;DHT22;17103;48.316;11.558;2023-06-26T09:30:32;29.10;35.60
30288;DHT22;17103;48.316;11.558;2023-06-26T09:33:13;29.20;35.70
30288;DHT22;17103;48.316;11.558;2023-06-26T09:35:39;29.30;35.00
30288;DHT22;17103;48.316;11.558;2023-06-26T09:38:05;29.40;35.50
30288;DHT22;17103;48.316;11.558;2023-06-26T09:40:31;29.30;34.90
30288;DHT22;17103;48.316;11.558;2023-06-26T09:43:05;29.40;34.80
30288;DHT22;17103;48.316;11.558;2023-06-26T09:45:34;29.60;35.20
30288;DHT22;17103;48.316;11.558;2023-06-26T09:48:05;29.70;34.50
30288;DHT22;17103;48.316;11.558;2023-06-26T09:50:34;29.70;34.30
30288;DHT22;17103;48.316;11.558;2023-06-26T09:53:10;29.80;34.60
30288;DHT22;17103;48.316;11.558;2023-06-26T09:55:36;29.90;34.50
30288;DHT22;17103;48.316;11.558;2023-06-26T09:58:06;29.90;34.40
30288;DHT22;17103;48.316;11.558;2023-06-26T10:00:32;30.00;33.40
30288;DHT22;17103;48.316;11.558;2023-06-26T10:02:59;30.10;33.60
30288;DHT22;17103;48.316;11.558;2023-06-26T10:05:26;30.20;33.50
30288;DHT22;17103;48.316;11.558;2023-06-26T10:07:52;30.20;34.10
30288;DHT22;17103;48.316;11.558;2023-06-26T10:10:19;30.30;33.00
30288;DHT22;17103;48.316;11.558;2023-06-26T10:12:49;30.40;32.90
30288;DHT22;17103;48.316;11.558;2023-06-26T10:15:17;30.40;32.90
30288;DHT22;17103;48.316;11.558;2023-06-26T10:17:44;30.50;31.80
30288;DHT22;17103;48.316;11.558;2023-06-26T10:20:12;30.50;31.70
30288;DHT22;17103;48.316;11.558;2023-06-26T10:22:44;30.60;32.60
30288;DHT22;17103;48.316;11.558;2023-06-26T10:25:10;30.70;32.50
30288;DHT22;17103;48.316;11.558;2023-06-26T10:27:41;30.80;31.70
30288;DHT22;17103;48.316;11.558;2023-06-26T10:30:12;30.80;31.20
30288;DHT22;17103;48.316;11.558;2023-06-26T10:32:40;30.90;31.20
30288;DHT22;17103;48.316;11.558;2023-06-26T10:35:06;31.00;31.30
30288;DHT22;17103;48.316;11.558;2023-06-26T10:37:47;31.10;31.70
30288;DHT22;17103;48.316;11.558;2023-06-26T10:40:15;31.20;31.30
30288;DHT22;17103;48.316;11.558;2023-06-26T10:42:46;31.20;30.90
30288;DHT22;17103;48.316;11.558;2023-06-26T10:45:16;31.30;31.30
30288;DHT22;17103;48.316;11.558;2023-06-26T10:47:46;31.40;31.40
30288;DHT22;17103;48.316;11.558;2023-06-26T10:50:32;31.50;30.70
30288;DHT22;17103;48.316;11.558;2023-06-26T11:01:14;31.60;30.00
30288;DHT22;17103;48.316;11.558;2023-06-26T11:03:42;31.60;29.60
30288;DHT22;17103;48.316;11.558;2023-06-26T11:06:21;31.70;30.10
30288;DHT22;17103;48.316;11.558;2023-06-26T11:11:12;31.70;30.00
30288;DHT22;17103;48.316;11.558;2023-06-26T11:13:39;31.70;29.60
30288;DHT22;17103;48.316;11.558;2023-06-26T11:16:05;31.70;29.50
30288;DHT22;17103;48.316;11.558;2023-06-26T11:18:32;31.80;29.90
30288;DHT22;17103;48.316;11.558;2023-06-26T11:21:10;31.90;30.50
30288;DHT22;17103;48.316;11.558;2023-06-26T11:23:37;31.90;29.90
30288;DHT22;17103;48.316;11.558;2023-06-26T11:26:19;31.90;29.70
30288;DHT22;17103;48.316;11.558;2023-06-26T11:28:54;31.90;30.00
30288;DHT22;17103;48.316;11.558;2023-06-26T11:31:31;32.00;29.90
30288;DHT22;17103;48.316;11.558;2023-06-26T11:33:59;32.10;29.90
30288;DHT22;17103;48.316;11.558;2023-06-26T11:36:28;32.10;29.60
30288;DHT22;17103;48.316;11.558;2023-06-26T11:38:58;32.10;30.10
30288;DHT22;17103;48.316;11.558;2023-06-26T11:41:26;32.20;30.00
30288;DHT22;17103;48.316;11.558;2023-06-26T11:43:52;32.20;30.00
30288;DHT22;17103;48.316;11.558;2023-06-26T11:46:20;32.20;30.20
30288;DHT22;17103;48.316;11.558;2023-06-26T11:48:46;32.40;30.10
30288;DHT22;17103;48.316;11.558;2023-06-26T11:51:15;32.50;30.60
30288;DHT22;17103;48.316;11.558;2023-06-26T11:53:45;32.60;29.80
30288;DHT22;17103;48.316;11.558;2023-06-26T11:56:12;32.60;29.30
30288;DHT22;17103;48.316;11.558;2023-06-26T11:58:59;32.70;29.70
30288;DHT22;17103;48.316;11.558;2023-06-26T12:01:39;32.70;29.70
30288;DHT22;17103;48.316;11.558;2023-06-26T12:04:08;32.80;28.70
30288;DHT22;17103;48.316;11.558;2023-06-26T12:06:35;32.80;28.50
30288;DHT22;17103;48.316;11.558;2023-06-26T12:09:09;32.80;28.80
30288;DHT22;17103;48.316;11.558;2023-06-26T12:11:38;32.80;28.60
30288;DHT22;17103;48.316;11.558;2023-06-26T12:14:06;32.80;28.90
30288;DHT22;17103;48.316;11.558;2023-06-26T12:16:33;32.80;29.40
30288;DHT22;17103;48.316;11.558;2023-06-26T12:19:00;32.90;29.70
30288;DHT22;17103;48.316;11.558;2023-06-26T12:24:08;33.00;28.30
30288;DHT22;17103;48.316;11.558;2023-06-26T12:26:36;33.10;28.70
30288;DHT22;17103;48.316;11.558;2023-06-26T12:29:08;33.00;28.70
30288;DHT22;17103;48.316;11.558;2023-06-26T12:31:34;33.10;28.40
30288;DHT22;17103;48.316;11.558;2023-06-26T12:34:01;33.00;29.00
30288;DHT22;17103;48.316;11.558;2023-06-26T12:36:27;33.10;28.60
30288;DHT22;17103;48.316;11.558;2023-06-26T12:38:54;33.10;28.90
30288;DHT22;17103;48.316;11.558;2023-06-26T12:41:20;33.20;27.60
30288;DHT22;17103;48.316;11.558;2023-06-26T12:43:49;33.20;27.70
30288;DHT22;17103;48.316;11.558;2023-06-26T12:46:14;33.10;28.20
30288;DHT22;17103;48.316;11.558;2023-06-26T12:48:41;33.10;28.60
30288;DHT22;17103;48.316;11.558;2023-06-26T12:51:16;33.20;28.70
30288;DHT22;17103;48.316;11.558;2023-06-26T12:53:43;33.20;28.20
30288;DHT22;17103;48.316;11.558;2023-06-26T12:56:09;33.20;28.40
30288;DHT22;17103;48.316;11.558;2023-06-26T12:58:36;33.20;28.10
30288;DHT22;17103;48.316;11.558;2023-06-26T13:01:06;33.20;27.50
30288;DHT22;17103;48.316;11.558;2023-06-26T13:03:40;33.20;27.70
30288;DHT22;17103;48.316;11.558;2023-06-26T13:06:06;33.20;27.00
30288;DHT22;17103;48.316;11.558;2023-06-26T13:08:32;33.20;27.30
30288;DHT22;17103;48.316;11.558;2023-06-26T13:10:58;33.30;28.00
30288;DHT22;17103;48.316;11.558;2023-06-26T13:13:24;33.20;27.90
30288;DHT22;17103;48.316;11.558;2023-06-26T13:15:49;33.30;28.00
30288;DHT22;17103;48.316;11.558;2023-06-26T13:18:15;33.30;28.40
30288;DHT22;17103;48.316;11.558;2023-06-26T13:20:41;33.50;28.50
30288;DHT22;17103;48.316;11.558;2023-06-26T13:23:06;33.50;28.40
30288;DHT22;17103;48.316;11.558;2023-06-26T13:25:32;33.60;28.40
30288;DHT22;17103;48.316;11.558;2023-06-26T13:27:58;33.70;28.20
30288;DHT22;17103;48.316;11.558;2023-06-26T13:30:24;33.90;27.60
30288;DHT22;17103;48.316;11.558;2023-06-26T13:32:50;34.00;27.70
30288;DHT22;17103;48.316;11.558;2023-06-26T13:35:15;34.10;27.90
30288;DHT22;17103;48.316;11.558;2023-06-26T13:37:41;34.20;27.50
30288;DHT22;17103;48.316;11.558;2023-06-26T13:40:08;34.20;27.70
30288;DHT22;17103;48.316;11.558;2023-06-26T13:42:34;34.30;27.20
30288;DHT22;17103;48.316;11.558;2023-06-26T13:45:02;34.40;26.70
30288;DHT22;17103;48.316;11.558;2023-06-26T13:47:28;34.50;27.30
30288;DHT22;17103;48.316;11.558;2023-06-26T13:49:54;34.50;27.20
30288;DHT22;17103;48.316;11.558;2023-06-26T13:52:19;34.60;27.10
30288;DHT22;17103;48.316;11.558;2023-06-26T13:54:45;34.70;27.20
30288;DHT22;17103;48.316;11.558;2023-06-26T13:57:11;34.70;26.80
30288;DHT22;17103;48.316;11.558;2023-06-26T13:59:38;34.90;26.70
30288;DHT22;17103;48.316;11.558;2023-06-26T14:02:05;34.90;26.70
30288;DHT22;17103;48.316;11.558;2023-06-26T14:04:32;35.00;26.30
30288;DHT22;17103;48.316;11.558;2023-06-26T14:06:57;35.00;26.00
30288;DHT22;17103;48.316;11.558;2023-06-26T14:09:23;35.00;25.70
30288;DHT22;17103;48.316;11.558;2023-06-26T14:11:49;35.00;25.50
30288;DHT22;17103;48.316;11.558;2023-06-26T14:14:14;35.00;25.70
30288;DHT22;17103;48.316;11.558;2023-06-26T14:16:41;35.10;26.30
30288;DHT22;17103;48.316;11.558;2023-06-26T14:19:07;35.20;26.20
30288;DHT22;17103;48.316;11.558;2023-06-26T14:21:33;35.30;25.90
30288;DHT22;17103;48.316;11.558;2023-06-26T14:24:01;35.30;25.80
30288;DHT22;17103;48.316;11.558;2023-06-26T14:26:27;35.40;25.70
30288;DHT22;17103;48.316;11.558;2023-06-26T14:28:55;35.50;26.00
30288;DHT22;17103;48.316;11.558;2023-06-26T14:31:21;35.60;25.90
30288;DHT22;17103;48.316;11.558;2023-06-26T14:33:46;35.70;26.20
30288;DHT22;17103;48.316;11.558;2023-06-26T14:36:12;35.80;25.30
30288;DHT22;17103;48.316;11.558;2023-06-26T14:38:37;35.90;25.90
30288;DHT22;17103;48.316;11.558;2023-06-26T14:41:03;35.90;24.80
30288;DHT22;17103;48.316;11.558;2023-06-26T14:43:29;35.80;25.00
30288;DHT22;17103;48.316;11.558;2023-06-26T14:45:54;35.90;25.70
30288;DHT22;17103;48.316;11.558;2023-06-26T14:48:20;35.90;25.80
30288;DHT22;17103;48.316;11.558;2023-06-26T14:50:46;36.00;26.30
30288;DHT22;17103;48.316;11.558;2023-06-26T14:53:11;36.10;25.80
30288;DHT22;17103;48.316;11.558;2023-06-26T14:55:37;36.20;26.00
30288;DHT22;17103;48.316;11.558;2023-06-26T14:58:03;36.30;26.10
30288;DHT22;17103;48.316;11.558;2023-06-26T15:00:28;36.30;26.20
30288;DHT22;17103;48.316;11.558;2023-06-26T15:02:54;36.50;26.30
30288;DHT22;17103;48.316;11.558;2023-06-26T15:05:20;36.50;25.80
30288;DHT22;17103;48.316;11.558;2023-06-26T15:07:47;36.50;25.90
30288;DHT22;17103;48.316;11.558;2023-06-26T15:10:12;36.60;26.20
30288;DHT22;17103;48.316;11.558;2023-06-26T15:12:38;36.70;26.20
30288;DHT22;17103;48.316;11.558;2023-06-26T15:15:04;36.70;25.70
30288;DHT22;17103;48.316;11.558;2023-06-26T15:17:30;36.80;25.80
30288;DHT22;17103;48.316;11.558;2023-06-26T15:19:55;36.80;26.00
30288;DHT22;17103;48.316;11.558;2023-06-26T15:22:22;36.80;26.10
30288;DHT22;17103;48.316;11.558;2023-06-26T15:24:51;36.80;25.90
30288;DHT22;17103;48.316;11.558;2023-06-26T15:27:16;36.80;26.20
30288;DHT22;17103;48.316;11.558;2023-06-26T15:29:42;36.80;26.10
30288;DHT22;17103;48.316;11.558;2023-06-26T15:32:09;36.90;26.20
30288;DHT22;17103;48.316;11.558;2023-06-26T15:34:35;36.80;25.90
30288;DHT22;17103;48.316;11.558;2023-06-26T15:37:01;36.80;26.20